Weather at Gjirokastër Airfield [CLOSED]

Public forecast

Using degrees Celsius for public forecast. Weather courtesy of forecast.io.

Closest aviation weather report (METAR) to Gjirokastër Airfield

Closest report is Corfu Ioannis Kapodistrias International Airport, 31.1 nm (57.6 km) SSW.

2024/05/20 19:20 (retrieved 32 minutes ago)

LGKR 201920Z 00000KT CAVOK 24/18 Q1010 NOSIG

Closest aviation forecast (TAF) to Gjirokastër Airfield

Closest forecast is Corfu Ioannis Kapodistrias International Airport, 31.1 nm (57.6 km) SSW.

2024/05/20 18:15 (retrieved 2 hours ago)

TAF LGKR 201700Z 2018/2118 VRB05KT 9999 FEW020 BECMG 2022/2024 16014KT